Warehouse Point, Connecticut
Current Conditions -  °F | °C
As of 1:51 PM on Saturday 25 Oct 2014 (Local Time) from KBDL Reporting Station
Scattered Clouds Scattered Clouds  
Wind Chill: 67°   Ceiling: Unl
Heat Index: 67°   Visibility: 10mi
Dew Point: 42°   Wind: 14mph
Humidity: 40%   Direction: 290°WNW
Pressure: 29.66"   Gusts: 21mph
Location:  41.9062°N, 72.5958°W
Report Text: KBDL 251751Z 29012G18KT 10SM FEW049 SCT250 19/06 A2966 RMK AO2 SLP045 T01940056 10194 20061 58036
Loading
Personal Weather Stations






























Interactive Weather Map
Tropical Storm Tracking
New forecast layout! Learn more

10-Day Weather Forecast

Advertisements
Track Severe Weather on mobile